Terminal Aerodrome Forecast
Issued by NWS Houston/Galveston, TX

Home | Current Version | Previous Version | Text Only | Print | Product List | Glossary On
Versions: 1 2 3 4 5 6 7 8 9 10 11 12 13
000
FTUS44 KHGX 181728
TAFCLL
TAF
KCLL 181728Z 1818/1918 16006KT P6SM FEW250
     FM191000 13003KT 5SM BR FEW250
     FM191600 11006KT P6SM SCT035 SCT250=

USA.gov is the U.S. government's official web portal to all federal, state and local government web resources and services.